sensor_id;sensor_type;location;lat;lon;timestamp;temperature;humidity
71551;DHT22;59367;48.414;9.872;2022-12-31T00:00:03;12.49752045;74.60327148
71551;DHT22;59367;48.414;9.872;2022-12-31T00:01:10;12.48149872;74.54376221
71551;DHT22;59367;48.414;9.872;2022-12-31T00:02:14;12.46814728;74.76959229
71551;DHT22;59367;48.414;9.872;2022-12-31T00:03:18;12.43877411;75.04882813
71551;DHT22;59367;48.414;9.872;2022-12-31T00:04:23;12.43877411;75.21057129
71551;DHT22;59367;48.414;9.872;2022-12-31T00:05:28;12.46814728;75.18768311
71551;DHT22;59367;48.414;9.872;2022-12-31T00:06:34;12.46814728;75.00762939
71551;DHT22;59367;48.414;9.872;2022-12-31T00:07:39;12.51087189;75.00457764
71551;DHT22;59367;48.414;9.872;2022-12-31T00:08:43;12.51087189;75.04425049
71551;DHT22;59367;48.414;9.872;2022-12-31T00:09:48;12.52422333;75.06713867
71551;DHT22;59367;48.414;9.872;2022-12-31T00:10:52;12.51087189;75.21514893
71551;DHT22;59367;48.414;9.872;2022-12-31T00:11:56;12.49752045;75.30059814
71551;DHT22;59367;48.414;9.872;2022-12-31T00:13:00;12.52422333;75.24719238
71551;DHT22;59367;48.414;9.872;2022-12-31T00:14:05;12.53757477;75.34637451
71551;DHT22;59367;48.414;9.872;2022-12-31T00:15:10;12.5535965;75.21514893
71551;DHT22;59367;48.414;9.872;2022-12-31T00:16:17;12.58029938;75.24108887
71551;DHT22;59367;48.414;9.872;2022-12-31T00:17:21;12.59632111;75.21362305
71551;DHT22;59367;48.414;9.872;2022-12-31T00:18:25;12.63637924;75.25177002
71551;DHT22;59367;48.414;9.872;2022-12-31T00:19:30;12.60967255;75.20904541
71551;DHT22;59367;48.414;9.872;2022-12-31T00:20:37;12.66575241;75.15106201
71551;DHT22;59367;48.414;9.872;2022-12-31T00:21:42;12.66575241;75.04577637
71551;DHT22;59367;48.414;9.872;2022-12-31T00:22:46;12.69245529;74.90997314
71551;DHT22;59367;48.414;9.872;2022-12-31T00:23:50;12.67910385;74.99237061
71551;DHT22;59367;48.414;9.872;2022-12-31T00:24:54;12.70847702;75.02746582
71551;DHT22;59367;48.414;9.872;2022-12-31T00:26:03;12.72182846;74.9710083
71551;DHT22;59367;48.414;9.872;2022-12-31T00:27:07;12.72182846;75.0579834
71551;DHT22;59367;48.414;9.872;2022-12-31T00:28:11;12.75120163;75.05340576
71551;DHT22;59367;48.414;9.872;2022-12-31T00:29:16;12.75120163;74.95117188
71551;DHT22;59367;48.414;9.872;2022-12-31T00:30:20;12.76455307;75.01831055
71551;DHT22;59367;48.414;9.872;2022-12-31T00:31:27;12.79125595;74.92980957
71551;DHT22;59367;48.414;9.872;2022-12-31T00:32:32;12.76455307;74.95269775
71551;DHT22;59367;48.414;9.872;2022-12-31T00:33:37;12.76455307;75.05493164
71551;DHT22;59367;48.414;9.872;2022-12-31T00:34:41;12.77790451;74.98321533
71551;DHT22;59367;48.414;9.872;2022-12-31T00:35:45;12.79125595;75.03204346
71551;DHT22;59367;48.414;9.872;2022-12-31T00:36:50;12.80727768;75.03662109
71551;DHT22;59367;48.414;9.872;2022-12-31T00:37:55;12.83398056;74.91912842
71551;DHT22;59367;48.414;9.872;2022-12-31T00:39:01;12.86335373;74.87487793
71551;DHT22;59367;48.414;9.872;2022-12-31T00:40:07;12.847332;74.89318848
71551;DHT22;59367;48.414;9.872;2022-12-31T00:41:13;12.847332;74.77874756
71551;DHT22;59367;48.414;9.872;2022-12-31T00:42:17;12.86335373;74.68566895
71551;DHT22;59367;48.414;9.872;2022-12-31T00:43:22;12.86335373;74.64599609
71551;DHT22;59367;48.414;9.872;2022-12-31T00:44:26;12.90875244;74.60784912
71551;DHT22;59367;48.414;9.872;2022-12-31T00:45:30;12.94880676;74.46289063
71551;DHT22;59367;48.414;9.872;2022-12-31T00:46:34;12.96482849;74.5223999
71551;DHT22;59367;48.414;9.872;2022-12-31T00:47:39;12.96482849;74.29351807
71551;DHT22;59367;48.414;9.872;2022-12-31T00:48:44;12.94880676;74.43389893
71551;DHT22;59367;48.414;9.872;2022-12-31T00:49:48;12.94880676;74.46289063
71551;DHT22;59367;48.414;9.872;2022-12-31T00:50:53;12.94880676;74.53918457
71551;DHT22;59367;48.414;9.872;2022-12-31T00:51:58;12.96482849;74.58953857
71551;DHT22;59367;48.414;9.872;2022-12-31T00:53:02;12.96482849;74.63684082
71551;DHT22;59367;48.414;9.872;2022-12-31T00:54:07;12.97817993;74.57580566
71551;DHT22;59367;48.414;9.872;2022-12-31T00:55:11;12.97817993;74.659729
71551;DHT22;59367;48.414;9.872;2022-12-31T00:56:17;12.97817993;74.61242676
71551;DHT22;59367;48.414;9.872;2022-12-31T00:57:22;12.94880676;74.72229004
71551;DHT22;59367;48.414;9.872;2022-12-31T00:58:26;12.97817993;74.76501465
71551;DHT22;59367;48.414;9.872;2022-12-31T00:59:30;13.00488281;74.73297119
71551;DHT22;59367;48.414;9.872;2022-12-31T01:00:35;13.00488281;74.54071045
71551;DHT22;59367;48.414;9.872;2022-12-31T01:01:40;13.03425598;74.58496094
71551;DHT22;59367;48.414;9.872;2022-12-31T01:02:45;13.04760742;74.55749512
71551;DHT22;59367;48.414;9.872;2022-12-31T01:03:52;13.03425598;74.52697754
71551;DHT22;59367;48.414;9.872;2022-12-31T01:04:56;13.04760742;74.50256348
71551;DHT22;59367;48.414;9.872;2022-12-31T01:06:01;13.10368347;74.39880371
71551;DHT22;59367;48.414;9.872;2022-12-31T01:07:05;13.1197052;74.3057251
71551;DHT22;59367;48.414;9.872;2022-12-31T01:08:10;13.1464119;74.21417236
71551;DHT22;59367;48.414;9.872;2022-12-31T01:09:16;13.1464119;74.21417236
71551;DHT22;59367;48.414;9.872;2022-12-31T01:10:20;13.1464119;74.20654297
71551;DHT22;59367;48.414;9.872;2022-12-31T01:11:25;13.10368347;74.21569824
71551;DHT22;59367;48.414;9.872;2022-12-31T01:12:29;13.13306046;74.28894043
71551;DHT22;59367;48.414;9.872;2022-12-31T01:13:34;13.1464119;74.27368164
71551;DHT22;59367;48.414;9.872;2022-12-31T01:14:38;13.17578506;74.20196533
71551;DHT22;59367;48.414;9.872;2022-12-31T01:15:42;13.18913651;74.14550781
71551;DHT22;59367;48.414;9.872;2022-12-31T01:16:48;13.17578506;74.05853271
71551;DHT22;59367;48.414;9.872;2022-12-31T01:17:53;13.20248795;74.03259277
71551;DHT22;59367;48.414;9.872;2022-12-31T01:18:58;13.21850967;74.05853271
71551;DHT22;59367;48.414;9.872;2022-12-31T01:20:03;13.23186111;73.94561768
71551;DHT22;59367;48.414;9.872;2022-12-31T01:21:10;13.21850967;73.81744385
71551;DHT22;59367;48.414;9.872;2022-12-31T01:22:15;13.18913651;73.88916016
71551;DHT22;59367;48.414;9.872;2022-12-31T01:23:19;13.20248795;73.81591797
71551;DHT22;59367;48.414;9.872;2022-12-31T01:24:23;13.23186111;73.79302979
71551;DHT22;59367;48.414;9.872;2022-12-31T01:25:28;13.23186111;73.81134033
71551;DHT22;59367;48.414;9.872;2022-12-31T01:26:32;13.23186111;73.63891602
71551;DHT22;59367;48.414;9.872;2022-12-31T01:27:36;13.23186111;73.65722656
71551;DHT22;59367;48.414;9.872;2022-12-31T01:28:41;13.23186111;73.62976074
71551;DHT22;59367;48.414;9.872;2022-12-31T01:29:45;13.24521255;73.62060547
71551;DHT22;59367;48.414;9.872;2022-12-31T01:30:49;13.23186111;73.51531982
71551;DHT22;59367;48.414;9.872;2022-12-31T01:31:54;13.258564;73.43292236
71551;DHT22;59367;48.414;9.872;2022-12-31T01:32:58;13.23186111;73.33221436
71551;DHT22;59367;48.414;9.872;2022-12-31T01:34:03;13.258564;73.30932617
71551;DHT22;59367;48.414;9.872;2022-12-31T01:35:09;13.258564;73.24371338
71551;DHT22;59367;48.414;9.872;2022-12-31T01:36:16;13.24521255;73.33526611
71551;DHT22;59367;48.414;9.872;2022-12-31T01:37:20;13.258564;73.24371338
71551;DHT22;59367;48.414;9.872;2022-12-31T01:38:25;13.258564;73.23150635
71551;DHT22;59367;48.414;9.872;2022-12-31T01:39:29;13.24521255;73.12469482
71551;DHT22;59367;48.414;9.872;2022-12-31T01:40:37;13.24521255;73.12469482
71551;DHT22;59367;48.414;9.872;2022-12-31T01:41:45;13.24521255;73.12469482
71551;DHT22;59367;48.414;9.872;2022-12-31T01:42:57;13.23186111;73.18878174
71551;DHT22;59367;48.414;9.872;2022-12-31T01:45:35;13.21850967;73.12011719
71551;DHT22;59367;48.414;9.872;2022-12-31T01:46:42;13.23186111;72.9888916
71551;DHT22;59367;48.414;9.872;2022-12-31T01:47:50;13.24521255;72.88360596
71551;DHT22;59367;48.414;9.872;2022-12-31T01:48:58;13.20248795;73.03924561
71551;DHT22;59367;48.414;9.872;2022-12-31T01:50:08;13.18913651;73.11553955
71551;DHT22;59367;48.414;9.872;2022-12-31T01:51:13;13.18913651;73.12164307
71551;DHT22;59367;48.414;9.872;2022-12-31T01:52:21;13.20248795;72.96447754
71551;DHT22;59367;48.414;9.872;2022-12-31T01:53:27;13.23186111;72.84240723
71551;DHT22;59367;48.414;9.872;2022-12-31T01:54:33;13.15976334;72.86834717
71551;DHT22;59367;48.414;9.872;2022-12-31T01:55:41;13.15976334;72.93701172
71551;DHT22;59367;48.414;9.872;2022-12-31T01:56:49;13.15976334;72.88665771
71551;DHT22;59367;48.414;9.872;2022-12-31T01:57:58;13.13306046;72.92022705
71551;DHT22;59367;48.414;9.872;2022-12-31T01:59:06;13.1197052;73.00567627
71551;DHT22;59367;48.414;9.872;2022-12-31T02:00:13;13.10368347;72.92480469
71551;DHT22;59367;48.414;9.872;2022-12-31T02:01:20;13.09033203;72.94311523
71551;DHT22;59367;48.414;9.872;2022-12-31T02:02:25;13.09033203;72.96142578
71551;DHT22;59367;48.414;9.872;2022-12-31T02:03:30;13.03425598;72.88360596
71551;DHT22;59367;48.414;9.872;2022-12-31T02:04:35;13.04760742;73.05755615
71551;DHT22;59367;48.414;9.872;2022-12-31T02:05:43;13.04760742;72.92480469
71551;DHT22;59367;48.414;9.872;2022-12-31T02:06:53;13.03425598;72.93243408
71551;DHT22;59367;48.414;9.872;2022-12-31T02:07:58;13.02090454;72.92022705
71551;DHT22;59367;48.414;9.872;2022-12-31T02:09:03;13.02090454;72.89123535
71551;DHT22;59367;48.414;9.872;2022-12-31T02:10:08;13.03425598;72.89276123
71551;DHT22;59367;48.414;9.872;2022-12-31T02:11:26;13.00488281;72.91564941
71551;DHT22;59367;48.414;9.872;2022-12-31T02:12:30;12.97817993;72.8729248
71551;DHT22;59367;48.414;9.872;2022-12-31T02:13:35;13.00488281;72.91564941
71551;DHT22;59367;48.414;9.872;2022-12-31T02:14:41;12.96482849;72.86071777
71551;DHT22;59367;48.414;9.872;2022-12-31T02:15:53;12.96482849;72.98431396
71551;DHT22;59367;48.414;9.872;2022-12-31T02:17:06;12.96482849;72.90039063
71551;DHT22;59367;48.414;9.872;2022-12-31T02:18:22;12.92210388;72.98736572
71551;DHT22;59367;48.414;9.872;2022-12-31T02:19:48;12.94880676;72.93395996
71551;DHT22;59367;48.414;9.872;2022-12-31T02:21:31;12.92210388;72.90039063
71551;DHT22;59367;48.414;9.872;2022-12-31T02:22:55;12.87670898;73.08349609
71551;DHT22;59367;48.414;9.872;2022-12-31T02:24:34;12.86335373;73.07128906
71551;DHT22;59367;48.414;9.872;2022-12-31T02:25:56;12.87670898;73.08349609
71551;DHT22;59367;48.414;9.872;2022-12-31T02:27:08;12.847332;73.1338501
71551;DHT22;59367;48.414;9.872;2022-12-31T02:28:23;12.847332;73.1338501
71551;DHT22;59367;48.414;9.872;2022-12-31T02:31:20;12.86335373;73.08959961
71551;DHT22;59367;48.414;9.872;2022-12-31T02:32:34;12.86335373;73.12011719
71551;DHT22;59367;48.414;9.872;2022-12-31T02:33:43;12.847332;73.15368652
71551;DHT22;59367;48.414;9.872;2022-12-31T02:34:53;12.847332;73.03009033
71551;DHT22;59367;48.414;9.872;2022-12-31T02:36:03;12.89006042;72.88665771
71551;DHT22;59367;48.414;9.872;2022-12-31T02:37:12;12.82062912;72.9095459
71551;DHT22;59367;48.414;9.872;2022-12-31T02:38:21;12.83398056;73.17962646
71551;DHT22;59367;48.414;9.872;2022-12-31T02:39:27;12.83398056;73.06518555
71551;DHT22;59367;48.414;9.872;2022-12-31T02:40:34;12.847332;73.03009033
71551;DHT22;59367;48.414;9.872;2022-12-31T02:41:40;12.87670898;72.92022705
71551;DHT22;59367;48.414;9.872;2022-12-31T02:42:44;12.83398056;72.9019165
71551;DHT22;59367;48.414;9.872;2022-12-31T02:43:48;12.82062912;73.06213379
71551;DHT22;59367;48.414;9.872;2022-12-31T02:44:53;12.847332;73.03924561
71551;DHT22;59367;48.414;9.872;2022-12-31T02:46:04;12.83398056;73.01635742
71551;DHT22;59367;48.414;9.872;2022-12-31T02:47:22;12.86335373;72.84088135
71551;DHT22;59367;48.414;9.872;2022-12-31T02:48:42;12.87670898;72.71728516
71551;DHT22;59367;48.414;9.872;2022-12-31T02:50:00;12.847332;72.83782959
71551;DHT22;59367;48.414;9.872;2022-12-31T02:51:17;12.82062912;72.9385376
71551;DHT22;59367;48.414;9.872;2022-12-31T02:52:31;12.80727768;73.14758301
71551;DHT22;59367;48.414;9.872;2022-12-31T02:53:55;12.82062912;73.12927246
71551;DHT22;59367;48.414;9.872;2022-12-31T02:55:07;12.79125595;73.046875
71551;DHT22;59367;48.414;9.872;2022-12-31T02:56:18;12.82062912;73.03466797
71551;DHT22;59367;48.414;9.872;2022-12-31T02:57:29;12.79125595;73.01940918
71551;DHT22;59367;48.414;9.872;2022-12-31T02:58:40;12.77790451;73.06518555
71551;DHT22;59367;48.414;9.872;2022-12-31T02:59:54;12.79125595;73.34442139
71551;DHT22;59367;48.414;9.872;2022-12-31T03:00:59;12.77790451;73.34136963
71551;DHT22;59367;48.414;9.872;2022-12-31T03:02:07;12.80727768;73.22235107
71551;DHT22;59367;48.414;9.872;2022-12-31T03:03:13;12.82062912;73.2635498
71551;DHT22;59367;48.414;9.872;2022-12-31T03:04:19;12.82062912;73.22540283
71551;DHT22;59367;48.414;9.872;2022-12-31T03:05:26;12.847332;73.30780029
71551;DHT22;59367;48.414;9.872;2022-12-31T03:06:32;12.87670898;73.17047119
71551;DHT22;59367;48.414;9.872;2022-12-31T03:07:38;12.87670898;73.11096191
71551;DHT22;59367;48.414;9.872;2022-12-31T03:08:43;12.87670898;73.04382324
71551;DHT22;59367;48.414;9.872;2022-12-31T03:09:47;12.92210388;73.14758301
71551;DHT22;59367;48.414;9.872;2022-12-31T03:10:52;12.93545532;73.10333252
71551;DHT22;59367;48.414;9.872;2022-12-31T03:11:56;12.93545532;73.03466797
71551;DHT22;59367;48.414;9.872;2022-12-31T03:13:01;12.94880676;73.02093506
71551;DHT22;59367;48.414;9.872;2022-12-31T03:14:05;13.00488281;73.01177979
71551;DHT22;59367;48.414;9.872;2022-12-31T03:15:11;12.96482849;72.94769287
71551;DHT22;59367;48.414;9.872;2022-12-31T03:16:16;12.96482849;72.84088135
71551;DHT22;59367;48.414;9.872;2022-12-31T03:17:21;13.00488281;72.74017334
71551;DHT22;59367;48.414;9.872;2022-12-31T03:18:25;12.99153137;72.59979248
71551;DHT22;59367;48.414;9.872;2022-12-31T03:19:29;13.00488281;72.54486084
71551;DHT22;59367;48.414;9.872;2022-12-31T03:20:35;13.00488281;72.47619629
71551;DHT22;59367;48.414;9.872;2022-12-31T03:21:41;13.02090454;72.45788574
71551;DHT22;59367;48.414;9.872;2022-12-31T03:22:45;13.00488281;72.57232666
71551;DHT22;59367;48.414;9.872;2022-12-31T03:23:49;13.02090454;72.63641357
71551;DHT22;59367;48.414;9.872;2022-12-31T03:24:54;13.00488281;72.75085449
71551;DHT22;59367;48.414;9.872;2022-12-31T03:26:00;13.02090454;72.72338867
71551;DHT22;59367;48.414;9.872;2022-12-31T03:27:05;12.97817993;72.82409668
71551;DHT22;59367;48.414;9.872;2022-12-31T03:28:11;12.99153137;72.95227051
71551;DHT22;59367;48.414;9.872;2022-12-31T03:29:16;13.00488281;72.97363281
71551;DHT22;59367;48.414;9.872;2022-12-31T03:30:21;13.02090454;72.94769287
71551;DHT22;59367;48.414;9.872;2022-12-31T03:31:26;13.03425598;72.9888916
71551;DHT22;59367;48.414;9.872;2022-12-31T03:32:30;13.03425598;72.86376953
71551;DHT22;59367;48.414;9.872;2022-12-31T03:33:37;13.07698059;72.70507813
71551;DHT22;59367;48.414;9.872;2022-12-31T03:34:41;13.07698059;72.74475098
71551;DHT22;59367;48.414;9.872;2022-12-31T03:35:47;13.09033203;72.66845703
71551;DHT22;59367;48.414;9.872;2022-12-31T03:36:52;13.09033203;72.65930176
71551;DHT22;59367;48.414;9.872;2022-12-31T03:37:56;13.04760742;72.78747559
71551;DHT22;59367;48.414;9.872;2022-12-31T03:39:01;13.07698059;72.86071777
71551;DHT22;59367;48.414;9.872;2022-12-31T03:40:07;13.03425598;72.94158936
71551;DHT22;59367;48.414;9.872;2022-12-31T03:41:12;13.04760742;72.93395996
71551;DHT22;59367;48.414;9.872;2022-12-31T03:42:16;13.04760742;72.94311523
71551;DHT22;59367;48.414;9.872;2022-12-31T03:43:21;13.04760742;72.84698486
71551;DHT22;59367;48.414;9.872;2022-12-31T03:44:25;13.06362915;72.81951904
71551;DHT22;59367;48.414;9.872;2022-12-31T03:45:29;13.02090454;72.89123535
71551;DHT22;59367;48.414;9.872;2022-12-31T03:46:34;13.06362915;72.82867432
71551;DHT22;59367;48.414;9.872;2022-12-31T03:47:38;13.07698059;72.74475098
71551;DHT22;59367;48.414;9.872;2022-12-31T03:48:43;13.06362915;72.65472412
71551;DHT22;59367;48.414;9.872;2022-12-31T03:49:48;13.07698059;72.58605957
71551;DHT22;59367;48.414;9.872;2022-12-31T03:50:52;13.06362915;72.46704102
71551;DHT22;59367;48.414;9.872;2022-12-31T03:51:56;13.06362915;72.49450684
71551;DHT22;59367;48.414;9.872;2022-12-31T03:53:01;13.03425598;72.6776123
71551;DHT22;59367;48.414;9.872;2022-12-31T03:54:06;13.04760742;72.73712158
71551;DHT22;59367;48.414;9.872;2022-12-31T03:55:11;13.03425598;72.6776123
71551;DHT22;59367;48.414;9.872;2022-12-31T03:56:15;13.04760742;72.53112793
71551;DHT22;59367;48.414;9.872;2022-12-31T03:57:21;13.06362915;72.37854004
71551;DHT22;59367;48.414;9.872;2022-12-31T03:58:25;13.07698059;72.33276367
71551;DHT22;59367;48.414;9.872;2022-12-31T03:59:29;13.06362915;72.41668701
71551;DHT22;59367;48.414;9.872;2022-12-31T04:00:34;13.04760742;72.61199951
71551;DHT22;59367;48.414;9.872;2022-12-31T04:01:38;13.03425598;72.76763916
71551;DHT22;59367;48.414;9.872;2022-12-31T04:02:43;13.02090454;72.84240723
71551;DHT22;59367;48.414;9.872;2022-12-31T04:03:47;13.03425598;72.93243408
71551;DHT22;59367;48.414;9.872;2022-12-31T04:04:51;13.02090454;73.05297852
71551;DHT22;59367;48.414;9.872;2022-12-31T04:05:56;13.03425598;73.05603027
71551;DHT22;59367;48.414;9.872;2022-12-31T04:07:01;13.02090454;73.08349609
71551;DHT22;59367;48.414;9.872;2022-12-31T04:08:05;13.03425598;73.15216064
71551;DHT22;59367;48.414;9.872;2022-12-31T04:09:10;13.06362915;73.09875488
71551;DHT22;59367;48.414;9.872;2022-12-31T04:10:15;13.06362915;73.06060791
71551;DHT22;59367;48.414;9.872;2022-12-31T04:11:20;13.07698059;72.98736572
71551;DHT22;59367;48.414;9.872;2022-12-31T04:12:24;13.1197052;72.92785645
71551;DHT22;59367;48.414;9.872;2022-12-31T04:13:28;13.1197052;72.86071777
71551;DHT22;59367;48.414;9.872;2022-12-31T04:14:33;13.1464119;72.70965576
71551;DHT22;59367;48.414;9.872;2022-12-31T04:15:37;13.1464119;72.54943848
71551;DHT22;59367;48.414;9.872;2022-12-31T04:16:41;13.17578506;72.35107422
71551;DHT22;59367;48.414;9.872;2022-12-31T04:17:46;13.18913651;72.29309082
71551;DHT22;59367;48.414;9.872;2022-12-31T04:18:51;13.18913651;72.265625
71551;DHT22;59367;48.414;9.872;2022-12-31T04:19:55;13.18913651;72.24578857
71551;DHT22;59367;48.414;9.872;2022-12-31T04:21:04;13.20248795;72.15881348
71551;DHT22;59367;48.414;9.872;2022-12-31T04:22:08;13.20248795;72.02301025
71551;DHT22;59367;48.414;9.872;2022-12-31T04:23:13;13.17578506;72.18322754
71551;DHT22;59367;48.414;9.872;2022-12-31T04:24:17;13.15976334;72.27783203
71551;DHT22;59367;48.414;9.872;2022-12-31T04:25:21;13.1197052;72.28240967
71551;DHT22;59367;48.414;9.872;2022-12-31T04:26:26;13.1464119;72.34649658
71551;DHT22;59367;48.414;9.872;2022-12-31T04:27:30;13.15976334;72.32818604
71551;DHT22;59367;48.414;9.872;2022-12-31T04:28:34;13.1464119;72.19696045
71551;DHT22;59367;48.414;9.872;2022-12-31T04:29:39;13.17578506;71.99554443
71551;DHT22;59367;48.414;9.872;2022-12-31T04:30:44;13.15976334;71.71936035
71551;DHT22;59367;48.414;9.872;2022-12-31T04:31:48;13.17578506;71.60491943
71551;DHT22;59367;48.414;9.872;2022-12-31T04:32:52;13.15976334;71.48284912
71551;DHT22;59367;48.414;9.872;2022-12-31T04:33:56;13.13306046;71.46911621
71551;DHT22;59367;48.414;9.872;2022-12-31T04:35:01;13.1464119;71.29516602
71551;DHT22;59367;48.414;9.872;2022-12-31T04:36:06;13.1197052;71.09222412
71551;DHT22;59367;48.414;9.872;2022-12-31T04:37:11;13.1197052;70.99609375
71551;DHT22;59367;48.414;9.872;2022-12-31T04:38:15;13.09033203;71.24481201
71551;DHT22;59367;48.414;9.872;2022-12-31T04:39:20;13.09033203;71.52862549
71551;DHT22;59367;48.414;9.872;2022-12-31T04:40:24;13.07698059;71.60644531
71551;DHT22;59367;48.414;9.872;2022-12-31T04:41:28;13.06362915;71.47674561
71551;DHT22;59367;48.414;9.872;2022-12-31T04:42:33;13.04760742;71.27685547
71551;DHT22;59367;48.414;9.872;2022-12-31T04:43:37;13.02090454;71.01593018
71551;DHT22;59367;48.414;9.872;2022-12-31T04:44:41;13.02090454;70.9777832
71551;DHT22;59367;48.414;9.872;2022-12-31T04:45:46;12.99153137;71.06018066
71551;DHT22;59367;48.414;9.872;2022-12-31T04:46:50;12.97817993;71.94061279
71551;DHT22;59367;48.414;9.872;2022-12-31T04:47:54;12.94880676;72.1496582
71551;DHT22;59367;48.414;9.872;2022-12-31T04:48:59;12.92210388;72.18322754
71551;DHT22;59367;48.414;9.872;2022-12-31T04:50:04;12.92210388;72.26409912
71551;DHT22;59367;48.414;9.872;2022-12-31T04:51:09;12.90875244;72.39837646
71551;DHT22;59367;48.414;9.872;2022-12-31T04:52:13;12.93545532;72.84545898
71551;DHT22;59367;48.414;9.872;2022-12-31T04:53:18;12.90875244;73.64349365
71551;DHT22;59367;48.414;9.872;2022-12-31T04:54:22;12.89006042;73.94561768
71551;DHT22;59367;48.414;9.872;2022-12-31T04:55:26;12.87670898;74.04022217
71551;DHT22;59367;48.414;9.872;2022-12-31T04:56:31;12.89006042;73.9944458
71551;DHT22;59367;48.414;9.872;2022-12-31T04:57:35;12.92210388;73.93188477
71551;DHT22;59367;48.414;9.872;2022-12-31T04:58:40;12.92210388;74.05548096
71551;DHT22;59367;48.414;9.872;2022-12-31T04:59:45;12.90875244;74.39880371
71551;DHT22;59367;48.414;9.872;2022-12-31T05:00:51;12.89006042;74.78637695
71551;DHT22;59367;48.414;9.872;2022-12-31T05:01:55;12.89006042;74.93896484
71551;DHT22;59367;48.414;9.872;2022-12-31T05:03:00;12.92210388;74.89776611
71551;DHT22;59367;48.414;9.872;2022-12-31T05:04:04;12.93545532;74.84283447
71551;DHT22;59367;48.414;9.872;2022-12-31T05:05:09;12.96482849;74.85656738
71551;DHT22;59367;48.414;9.872;2022-12-31T05:06:15;12.94880676;74.93896484
71551;DHT22;59367;48.414;9.872;2022-12-31T05:07:20;12.97817993;74.87945557
71551;DHT22;59367;48.414;9.872;2022-12-31T05:08:24;13.03425598;74.73754883
71551;DHT22;59367;48.414;9.872;2022-12-31T05:09:29;13.07698059;74.47052002
71551;DHT22;59367;48.414;9.872;2022-12-31T05:10:33;13.09033203;74.0814209
71551;DHT22;59367;48.414;9.872;2022-12-31T05:11:37;13.1197052;73.95019531
71551;DHT22;59367;48.414;9.872;2022-12-31T05:12:42;13.13306046;73.89526367
71551;DHT22;59367;48.414;9.872;2022-12-31T05:13:46;13.13306046;73.76251221
71551;DHT22;59367;48.414;9.872;2022-12-31T05:14:50;13.1197052;73.77929688
71551;DHT22;59367;48.414;9.872;2022-12-31T05:15:55;13.1464119;73.82202148
71551;DHT22;59367;48.414;9.872;2022-12-31T05:16:59;13.15976334;73.60534668
71551;DHT22;59367;48.414;9.872;2022-12-31T05:18:03;13.17578506;73.61907959
71551;DHT22;59367;48.414;9.872;2022-12-31T05:19:08;13.17578506;73.50463867
71551;DHT22;59367;48.414;9.872;2022-12-31T05:20:12;13.18913651;73.39172363
71551;DHT22;59367;48.414;9.872;2022-12-31T05:21:19;13.18913651;73.26660156
71551;DHT22;59367;48.414;9.872;2022-12-31T05:22:24;13.20248795;73.13537598
71551;DHT22;59367;48.414;9.872;2022-12-31T05:23:28;13.20248795;73.1842041
71551;DHT22;59367;48.414;9.872;2022-12-31T05:24:33;13.23186111;73.17047119
71551;DHT22;59367;48.414;9.872;2022-12-31T05:25:37;13.20248795;73.24981689
71551;DHT22;59367;48.414;9.872;2022-12-31T05:26:42;13.18913651;73.15216064
71551;DHT22;59367;48.414;9.872;2022-12-31T05:27:46;13.21850967;73.23455811
71551;DHT22;59367;48.414;9.872;2022-12-31T05:28:50;13.21850967;73.17657471
71551;DHT22;59367;48.414;9.872;2022-12-31T05:29:55;13.23186111;73.16131592
71551;DHT22;59367;48.414;9.872;2022-12-31T05:30:59;13.21850967;73.24371338
71551;DHT22;59367;48.414;9.872;2022-12-31T05:32:03;13.20248795;73.28033447
71551;DHT22;59367;48.414;9.872;2022-12-31T05:33:08;13.23186111;73.4375
71551;DHT22;59367;48.414;9.872;2022-12-31T05:34:12;13.23186111;73.3505249
71551;DHT22;59367;48.414;9.872;2022-12-31T05:35:17;13.20248795;73.47869873
71551;DHT22;59367;48.414;9.872;2022-12-31T05:36:21;13.18913651;73.47717285
71551;DHT22;59367;48.414;9.872;2022-12-31T05:37:26;13.17578506;73.68469238
71551;DHT22;59367;48.414;9.872;2022-12-31T05:38:31;13.17578506;73.64654541
71551;DHT22;59367;48.414;9.872;2022-12-31T05:39:35;13.18913651;73.66027832
71551;DHT22;59367;48.414;9.872;2022-12-31T05:40:39;13.15976334;73.61602783
71551;DHT22;59367;48.414;9.872;2022-12-31T05:41:44;13.18913651;73.53363037
71551;DHT22;59367;48.414;9.872;2022-12-31T05:42:48;13.18913651;73.49700928
71551;DHT22;59367;48.414;9.872;2022-12-31T05:43:53;13.21850967;73.37799072
71551;DHT22;59367;48.414;9.872;2022-12-31T05:44:57;13.23186111;73.29406738
71551;DHT22;59367;48.414;9.872;2022-12-31T05:46:03;13.24521255;73.35510254
71551;DHT22;59367;48.414;9.872;2022-12-31T05:47:07;13.27458572;73.3505249
71551;DHT22;59367;48.414;9.872;2022-12-31T05:48:12;13.28793716;73.22692871
71551;DHT22;59367;48.414;9.872;2022-12-31T05:49:16;13.28793716;73.14300537
71551;DHT22;59367;48.414;9.872;2022-12-31T05:50:20;13.31731033;73.08959961
71551;DHT22;59367;48.414;9.872;2022-12-31T05:51:25;13.31731033;72.82867432
71551;DHT22;59367;48.414;9.872;2022-12-31T05:52:29;13.28793716;73.08502197
71551;DHT22;59367;48.414;9.872;2022-12-31T05:53:34;13.28793716;73.10333252
71551;DHT22;59367;48.414;9.872;2022-12-31T05:54:38;13.28793716;73.08502197